sensor_id;sensor_type;location;lat;lon;timestamp;pressure;altitude;pressure_sealevel;temperature;humidity
30339;BME280;795;49.296;11.348;2023-05-03T00:02:09;97192.22;;;7.32;100.00
30339;BME280;795;49.296;11.348;2023-05-03T00:04:37;97197.00;;;7.29;100.00
30339;BME280;795;49.296;11.348;2023-05-03T00:07:04;97170.47;;;7.16;100.00
30339;BME280;795;49.296;11.348;2023-05-03T00:09:33;97157.16;;;7.05;100.00
30339;BME280;795;49.296;11.348;2023-05-03T00:12:01;97070.13;;;6.41;100.00
30339;BME280;795;49.296;11.348;2023-05-03T00:14:28;97191.94;;;7.15;100.00
30339;BME280;795;49.296;11.348;2023-05-03T00:16:55;97161.00;;;6.92;100.00
30339;BME280;795;49.296;11.348;2023-05-03T00:19:22;97100.56;;;6.38;100.00
30339;BME280;795;49.296;11.348;2023-05-03T00:21:58;97181.16;;;6.85;100.00
30339;BME280;795;49.296;11.348;2023-05-03T00:24:26;97197.25;;;6.94;100.00
30339;BME280;795;49.296;11.348;2023-05-03T00:26:53;97168.31;;;6.79;100.00
30339;BME280;795;49.296;11.348;2023-05-03T00:29:20;97199.22;;;6.92;100.00
30339;BME280;795;49.296;11.348;2023-05-03T00:31:48;97178.53;;;6.74;100.00
30339;BME280;795;49.296;11.348;2023-05-03T00:34:15;97177.72;;;6.62;100.00
30339;BME280;795;49.296;11.348;2023-05-03T00:36:42;97152.53;;;6.55;100.00
30339;BME280;795;49.296;11.348;2023-05-03T00:39:09;97105.28;;;6.35;100.00
30339;BME280;795;49.296;11.348;2023-05-03T00:41:38;97193.78;;;6.83;100.00
30339;BME280;795;49.296;11.348;2023-05-03T00:44:05;97199.75;;;6.75;100.00
30339;BME280;795;49.296;11.348;2023-05-03T00:46:32;97144.09;;;6.39;100.00
30339;BME280;795;49.296;11.348;2023-05-03T00:49:00;97133.66;;;6.36;100.00
30339;BME280;795;49.296;11.348;2023-05-03T00:51:27;97159.34;;;6.48;100.00
30339;BME280;795;49.296;11.348;2023-05-03T00:53:55;97150.63;;;6.35;100.00
30339;BME280;795;49.296;11.348;2023-05-03T00:56:22;97132.25;;;6.21;100.00
30339;BME280;795;49.296;11.348;2023-05-03T00:58:51;97085.44;;;5.85;100.00
30339;BME280;795;49.296;11.348;2023-05-03T01:01:18;97132.75;;;6.15;100.00
30339;BME280;795;49.296;11.348;2023-05-03T01:03:47;97175.50;;;6.24;100.00
30339;BME280;795;49.296;11.348;2023-05-03T01:10:06;97169.34;;;6.13;100.00
30339;BME280;795;49.296;11.348;2023-05-03T01:13:07;97168.38;;;6.25;100.00
30339;BME280;795;49.296;11.348;2023-05-03T01:18:38;97152.28;;;5.93;100.00
30339;BME280;795;49.296;11.348;2023-05-03T01:21:09;97120.41;;;5.80;100.00
30339;BME280;795;49.296;11.348;2023-05-03T01:24:03;97172.50;;;6.07;100.00
30339;BME280;795;49.296;11.348;2023-05-03T01:26:33;97133.84;;;5.79;100.00
30339;BME280;795;49.296;11.348;2023-05-03T01:29:00;97092.06;;;5.57;100.00
30339;BME280;795;49.296;11.348;2023-05-03T01:36:44;97114.84;;;5.72;100.00
30339;BME280;795;49.296;11.348;2023-05-03T01:39:27;97156.63;;;5.94;100.00
30339;BME280;795;49.296;11.348;2023-05-03T01:41:58;97130.81;;;5.72;100.00
30339;BME280;795;49.296;11.348;2023-05-03T01:44:28;97140.00;;;5.57;100.00
30339;BME280;795;49.296;11.348;2023-05-03T01:46:56;97096.94;;;5.30;100.00
30339;BME280;795;49.296;11.348;2023-05-03T01:49:23;97042.84;;;4.96;100.00
30339;BME280;795;49.296;11.348;2023-05-03T01:51:50;97025.50;;;4.80;100.00
30339;BME280;795;49.296;11.348;2023-05-03T01:54:17;97057.34;;;5.03;100.00
30339;BME280;795;49.296;11.348;2023-05-03T01:56:44;97075.84;;;4.94;100.00
30339;BME280;795;49.296;11.348;2023-05-03T01:59:12;97141.47;;;5.28;100.00
30339;BME280;795;49.296;11.348;2023-05-03T02:01:39;97022.63;;;4.37;100.00
30339;BME280;795;49.296;11.348;2023-05-03T02:04:06;97060.97;;;4.45;100.00
30339;BME280;795;49.296;11.348;2023-05-03T02:06:33;97049.34;;;4.35;100.00
30339;BME280;795;49.296;11.348;2023-05-03T02:09:01;97080.19;;;4.49;100.00
30339;BME280;795;49.296;11.348;2023-05-03T02:11:28;97105.25;;;4.57;100.00
30339;BME280;795;49.296;11.348;2023-05-03T02:13:55;97086.19;;;4.40;100.00
30339;BME280;795;49.296;11.348;2023-05-03T02:16:22;97122.88;;;4.58;100.00
30339;BME280;795;49.296;11.348;2023-05-03T02:18:49;97148.78;;;4.67;100.00
30339;BME280;795;49.296;11.348;2023-05-03T02:21:17;97077.09;;;4.31;100.00
30339;BME280;795;49.296;11.348;2023-05-03T02:23:44;97132.28;;;4.51;100.00
30339;BME280;795;49.296;11.348;2023-05-03T02:26:11;97130.81;;;4.47;100.00
30339;BME280;795;49.296;11.348;2023-05-03T02:28:38;97026.03;;;4.04;100.00
30339;BME280;795;49.296;11.348;2023-05-03T02:31:05;97169.47;;;4.99;100.00
30339;BME280;795;49.296;11.348;2023-05-03T02:33:32;97125.09;;;4.64;100.00
30339;BME280;795;49.296;11.348;2023-05-03T02:35:59;97087.41;;;4.36;100.00
30339;BME280;795;49.296;11.348;2023-05-03T02:38:26;97084.56;;;4.02;100.00
30339;BME280;795;49.296;11.348;2023-05-03T02:40:53;97114.03;;;4.23;100.00
30339;BME280;795;49.296;11.348;2023-05-03T02:43:20;97096.59;;;3.95;100.00
30339;BME280;795;49.296;11.348;2023-05-03T02:45:47;97138.91;;;4.22;100.00
30339;BME280;795;49.296;11.348;2023-05-03T02:48:14;97166.81;;;4.40;100.00
30339;BME280;795;49.296;11.348;2023-05-03T02:50:42;97064.75;;;3.83;100.00
30339;BME280;795;49.296;11.348;2023-05-03T02:53:09;97154.75;;;4.47;100.00
30339;BME280;795;49.296;11.348;2023-05-03T02:55:37;97151.34;;;4.45;100.00
30339;BME280;795;49.296;11.348;2023-05-03T02:58:04;97078.06;;;4.30;100.00
30339;BME280;795;49.296;11.348;2023-05-03T03:00:31;97170.41;;;4.98;100.00
30339;BME280;795;49.296;11.348;2023-05-03T03:02:58;97114.56;;;4.63;100.00
30339;BME280;795;49.296;11.348;2023-05-03T03:05:25;97060.91;;;4.34;100.00
30339;BME280;795;49.296;11.348;2023-05-03T03:07:52;97102.19;;;4.51;100.00
30339;BME280;795;49.296;11.348;2023-05-03T03:10:19;97157.38;;;5.06;100.00
30339;BME280;795;49.296;11.348;2023-05-03T03:12:46;97180.16;;;5.21;100.00
30339;BME280;795;49.296;11.348;2023-05-03T03:15:13;97192.88;;;5.28;100.00
30339;BME280;795;49.296;11.348;2023-05-03T03:17:40;97190.78;;;5.21;100.00
30339;BME280;795;49.296;11.348;2023-05-03T03:20:08;97174.53;;;5.02;100.00
30339;BME280;795;49.296;11.348;2023-05-03T03:22:39;97144.47;;;4.78;100.00
30339;BME280;795;49.296;11.348;2023-05-03T03:25:07;97116.59;;;4.59;100.00
30339;BME280;795;49.296;11.348;2023-05-03T03:27:34;97177.31;;;4.89;100.00
30339;BME280;795;49.296;11.348;2023-05-03T03:30:03;97175.09;;;4.83;100.00
30339;BME280;795;49.296;11.348;2023-05-03T03:32:31;97112.50;;;4.32;100.00
30339;BME280;795;49.296;11.348;2023-05-03T03:34:58;97161.19;;;4.56;100.00
30339;BME280;795;49.296;11.348;2023-05-03T03:37:25;97126.19;;;4.38;100.00
30339;BME280;795;49.296;11.348;2023-05-03T03:39:52;97144.34;;;4.44;100.00
30339;BME280;795;49.296;11.348;2023-05-03T03:42:19;97089.47;;;3.96;100.00
30339;BME280;795;49.296;11.348;2023-05-03T03:44:47;97110.38;;;4.00;100.00
30339;BME280;795;49.296;11.348;2023-05-03T03:47:15;97189.19;;;4.25;100.00
30339;BME280;795;49.296;11.348;2023-05-03T03:49:42;97146.50;;;4.03;100.00
30339;BME280;795;49.296;11.348;2023-05-03T03:52:09;97104.47;;;3.61;100.00
30339;BME280;795;49.296;11.348;2023-05-03T03:54:36;97177.59;;;4.26;100.00
30339;BME280;795;49.296;11.348;2023-05-03T03:57:03;97186.22;;;4.17;100.00
30339;BME280;795;49.296;11.348;2023-05-03T03:59:30;97144.97;;;3.88;100.00
30339;BME280;795;49.296;11.348;2023-05-03T04:01:56;97137.59;;;3.68;100.00
30339;BME280;795;49.296;11.348;2023-05-03T04:04:24;97126.31;;;3.64;100.00
30339;BME280;795;49.296;11.348;2023-05-03T04:06:51;97191.56;;;4.04;100.00
30339;BME280;795;49.296;11.348;2023-05-03T04:09:18;97186.50;;;4.01;100.00
30339;BME280;795;49.296;11.348;2023-05-03T04:11:45;97187.41;;;4.13;100.00
30339;BME280;795;49.296;11.348;2023-05-03T04:14:12;97102.75;;;3.60;100.00
30339;BME280;795;49.296;11.348;2023-05-03T04:16:38;97139.97;;;3.83;100.00
30339;BME280;795;49.296;11.348;2023-05-03T04:19:06;97190.50;;;4.07;100.00
30339;BME280;795;49.296;11.348;2023-05-03T04:21:33;97172.56;;;3.98;100.00
30339;BME280;795;49.296;11.348;2023-05-03T04:24:00;97169.69;;;4.01;100.00
30339;BME280;795;49.296;11.348;2023-05-03T04:26:32;97198.19;;;3.99;100.00
30339;BME280;795;49.296;11.348;2023-05-03T04:28:59;97159.94;;;3.89;100.00
30339;BME280;795;49.296;11.348;2023-05-03T04:31:26;97196.00;;;4.17;100.00
30339;BME280;795;49.296;11.348;2023-05-03T04:33:54;97201.69;;;4.36;100.00
30339;BME280;795;49.296;11.348;2023-05-03T04:36:21;97140.16;;;3.93;100.00
30339;BME280;795;49.296;11.348;2023-05-03T04:38:51;97213.28;;;4.35;100.00
30339;BME280;795;49.296;11.348;2023-05-03T04:41:18;97177.13;;;4.09;100.00
30339;BME280;795;49.296;11.348;2023-05-03T04:43:46;97219.09;;;4.40;100.00
30339;BME280;795;49.296;11.348;2023-05-03T04:46:13;97221.66;;;4.41;100.00
30339;BME280;795;49.296;11.348;2023-05-03T04:48:40;97158.41;;;4.10;100.00
30339;BME280;795;49.296;11.348;2023-05-03T04:51:07;97202.31;;;4.39;100.00
30339;BME280;795;49.296;11.348;2023-05-03T04:53:34;97144.38;;;4.08;100.00
30339;BME280;795;49.296;11.348;2023-05-03T04:56:01;97205.94;;;4.38;100.00
30339;BME280;795;49.296;11.348;2023-05-03T04:58:28;97177.66;;;4.37;100.00
30339;BME280;795;49.296;11.348;2023-05-03T05:00:54;97205.72;;;4.65;100.00
30339;BME280;795;49.296;11.348;2023-05-03T05:03:21;97207.63;;;4.87;100.00
30339;BME280;795;49.296;11.348;2023-05-03T05:05:48;97234.56;;;4.82;100.00
30339;BME280;795;49.296;11.348;2023-05-03T05:08:16;97239.31;;;4.90;100.00
30339;BME280;795;49.296;11.348;2023-05-03T05:10:44;97233.38;;;5.21;100.00
30339;BME280;795;49.296;11.348;2023-05-03T05:13:11;97129.44;;;4.65;100.00
30339;BME280;795;49.296;11.348;2023-05-03T05:15:38;97170.91;;;5.03;100.00
30339;BME280;795;49.296;11.348;2023-05-03T05:18:05;97210.94;;;5.36;100.00
30339;BME280;795;49.296;11.348;2023-05-03T05:20:32;97255.81;;;5.75;100.00
30339;BME280;795;49.296;11.348;2023-05-03T05:22:59;97257.81;;;5.95;100.00
30339;BME280;795;49.296;11.348;2023-05-03T05:25:26;97248.84;;;6.08;100.00
30339;BME280;795;49.296;11.348;2023-05-03T05:27:53;97170.94;;;6.04;100.00
30339;BME280;795;49.296;11.348;2023-05-03T05:30:20;97129.34;;;6.24;100.00
30339;BME280;795;49.296;11.348;2023-05-03T05:32:48;97231.53;;;7.10;100.00
30339;BME280;795;49.296;11.348;2023-05-03T05:35:16;97219.38;;;7.38;100.00
30339;BME280;795;49.296;11.348;2023-05-03T05:37:44;97200.72;;;7.68;100.00
30339;BME280;795;49.296;11.348;2023-05-03T05:40:12;97171.00;;;7.82;100.00
30339;BME280;795;49.296;11.348;2023-05-03T05:42:39;97118.47;;;7.41;100.00
30339;BME280;795;49.296;11.348;2023-05-03T05:45:06;97173.84;;;7.60;100.00
30339;BME280;795;49.296;11.348;2023-05-03T05:47:34;97140.50;;;7.64;100.00
30339;BME280;795;49.296;11.348;2023-05-03T05:50:01;97210.34;;;8.00;100.00
30339;BME280;795;49.296;11.348;2023-05-03T05:52:37;97225.22;;;8.24;100.00
30339;BME280;795;49.296;11.348;2023-05-03T05:55:05;97194.88;;;8.34;100.00
30339;BME280;795;49.296;11.348;2023-05-03T05:57:33;97197.81;;;8.31;100.00
30339;BME280;795;49.296;11.348;2023-05-03T06:00:00;97158.97;;;8.27;100.00
30339;BME280;795;49.296;11.348;2023-05-03T06:02:27;97234.06;;;9.23;100.00
30339;BME280;795;49.296;11.348;2023-05-03T06:04:55;97230.13;;;9.17;100.00
30339;BME280;795;49.296;11.348;2023-05-03T06:07:22;97221.38;;;9.44;100.00
30339;BME280;795;49.296;11.348;2023-05-03T06:09:50;97232.91;;;9.73;100.00
30339;BME280;795;49.296;11.348;2023-05-03T06:12:17;97146.22;;;9.26;100.00
30339;BME280;795;49.296;11.348;2023-05-03T06:14:44;97232.59;;;9.76;100.00
30339;BME280;795;49.296;11.348;2023-05-03T06:17:28;97236.41;;;9.93;100.00
30339;BME280;795;49.296;11.348;2023-05-03T06:19:56;97196.84;;;9.20;100.00
30339;BME280;795;49.296;11.348;2023-05-03T06:22:24;97159.47;;;9.28;100.00
30339;BME280;795;49.296;11.348;2023-05-03T06:24:53;97188.47;;;9.71;100.00
30339;BME280;795;49.296;11.348;2023-05-03T06:27:21;97209.25;;;10.06;100.00
30339;BME280;795;49.296;11.348;2023-05-03T06:29:48;97213.50;;;10.72;100.00
30339;BME280;795;49.296;11.348;2023-05-03T06:32:15;97239.41;;;11.08;100.00
30339;BME280;795;49.296;11.348;2023-05-03T06:34:42;97230.75;;;11.14;100.00
30339;BME280;795;49.296;11.348;2023-05-03T06:37:09;97240.06;;;10.75;100.00
30339;BME280;795;49.296;11.348;2023-05-03T06:39:36;97229.88;;;10.96;100.00
30339;BME280;795;49.296;11.348;2023-05-03T06:42:03;97187.97;;;10.58;100.00
30339;BME280;795;49.296;11.348;2023-05-03T06:44:30;97208.53;;;10.77;100.00
30339;BME280;795;49.296;11.348;2023-05-03T06:46:57;97193.72;;;10.91;100.00
30339;BME280;795;49.296;11.348;2023-05-03T06:49:24;97242.50;;;11.84;100.00
30339;BME280;795;49.296;11.348;2023-05-03T06:51:51;97121.56;;;11.57;100.00
30339;BME280;795;49.296;11.348;2023-05-03T06:54:18;97231.72;;;12.61;100.00
30339;BME280;795;49.296;11.348;2023-05-03T06:56:46;97224.56;;;12.94;100.00
30339;BME280;795;49.296;11.348;2023-05-03T06:59:12;97159.09;;;12.51;97.98
30339;BME280;795;49.296;11.348;2023-05-03T07:01:39;97195.50;;;13.05;96.23
30339;BME280;795;49.296;11.348;2023-05-03T07:04:06;97223.31;;;13.14;96.41
30339;BME280;795;49.296;11.348;2023-05-03T07:06:34;97222.72;;;13.52;93.09
30339;BME280;795;49.296;11.348;2023-05-03T07:09:14;97155.09;;;13.62;91.40
30339;BME280;795;49.296;11.348;2023-05-03T07:11:41;97214.28;;;13.87;89.72
30339;BME280;795;49.296;11.348;2023-05-03T07:14:15;97111.72;;;12.91;90.30
30339;BME280;795;49.296;11.348;2023-05-03T07:16:42;97209.38;;;13.91;86.75
30339;BME280;795;49.296;11.348;2023-05-03T07:19:09;97203.97;;;13.91;88.15
30339;BME280;795;49.296;11.348;2023-05-03T07:21:36;97119.53;;;13.42;87.42
30339;BME280;795;49.296;11.348;2023-05-03T07:24:04;97205.47;;;14.26;82.84
30339;BME280;795;49.296;11.348;2023-05-03T07:26:31;97213.59;;;14.34;84.35
30339;BME280;795;49.296;11.348;2023-05-03T07:28:57;97199.25;;;15.03;79.75
30339;BME280;795;49.296;11.348;2023-05-03T07:31:25;97206.59;;;15.25;77.93
30339;BME280;795;49.296;11.348;2023-05-03T07:33:52;97165.88;;;15.41;74.16
30339;BME280;795;49.296;11.348;2023-05-03T07:36:19;97213.59;;;15.65;73.30
30339;BME280;795;49.296;11.348;2023-05-03T07:38:46;97209.09;;;16.17;70.08
30339;BME280;795;49.296;11.348;2023-05-03T07:41:13;97201.75;;;15.66;69.07
30339;BME280;795;49.296;11.348;2023-05-03T07:43:40;97133.22;;;16.03;67.85
30339;BME280;795;49.296;11.348;2023-05-03T07:46:07;97198.84;;;16.27;67.69
30339;BME280;795;49.296;11.348;2023-05-03T07:48:34;97200.13;;;16.31;67.76
30339;BME280;795;49.296;11.348;2023-05-03T07:51:04;97126.78;;;16.33;65.78
30339;BME280;795;49.296;11.348;2023-05-03T07:53:31;97190.81;;;16.48;65.49
30339;BME280;795;49.296;11.348;2023-05-03T07:56:01;97201.00;;;15.57;70.87
30339;BME280;795;49.296;11.348;2023-05-03T07:58:27;97202.56;;;16.26;68.35
30339;BME280;795;49.296;11.348;2023-05-03T08:03:43;97198.75;;;16.65;66.05
30339;BME280;795;49.296;11.348;2023-05-03T08:06:11;97194.91;;;16.88;66.88
30339;BME280;795;49.296;11.348;2023-05-03T08:08:38;97175.03;;;17.17;61.33
30339;BME280;795;49.296;11.348;2023-05-03T08:11:05;97186.31;;;15.89;65.30
30339;BME280;795;49.296;11.348;2023-05-03T08:13:32;97193.47;;;16.05;66.21
30339;BME280;795;49.296;11.348;2023-05-03T08:15:59;97199.56;;;16.21;67.33
30339;BME280;795;49.296;11.348;2023-05-03T08:18:26;97196.44;;;17.27;62.27
30339;BME280;795;49.296;11.348;2023-05-03T08:20:53;97192.47;;;16.49;62.94
30339;BME280;795;49.296;11.348;2023-05-03T08:23:20;97194.09;;;16.73;63.69
30339;BME280;795;49.296;11.348;2023-05-03T08:25:48;97160.38;;;16.61;61.80
30339;BME280;795;49.296;11.348;2023-05-03T08:28:15;97202.63;;;16.18;63.80
30339;BME280;795;49.296;11.348;2023-05-03T08:30:42;97177.63;;;15.79;65.56
30339;BME280;795;49.296;11.348;2023-05-03T08:33:09;97134.16;;;16.24;63.85
30339;BME280;795;49.296;11.348;2023-05-03T08:35:36;97198.84;;;17.36;60.93
30339;BME280;795;49.296;11.348;2023-05-03T08:38:04;97183.94;;;17.11;58.98
30339;BME280;795;49.296;11.348;2023-05-03T08:40:30;97199.59;;;16.80;61.32
30339;BME280;795;49.296;11.348;2023-05-03T08:43:09;97198.09;;;18.06;57.58
30339;BME280;795;49.296;11.348;2023-05-03T08:45:37;97111.13;;;16.79;58.57
30339;BME280;795;49.296;11.348;2023-05-03T08:48:05;97199.25;;;16.83;58.79
30339;BME280;795;49.296;11.348;2023-05-03T08:50:34;97198.72;;;17.08;58.60
30339;BME280;795;49.296;11.348;2023-05-03T08:53:09;97203.31;;;16.35;61.04
30339;BME280;795;49.296;11.348;2023-05-03T08:55:37;97180.75;;;15.68;63.44
30339;BME280;795;49.296;11.348;2023-05-03T08:58:08;97153.53;;;15.69;63.45
30339;BME280;795;49.296;11.348;2023-05-03T09:00:39;97166.84;;;16.08;62.87
30339;BME280;795;49.296;11.348;2023-05-03T09:03:10;97195.84;;;16.22;62.63
30339;BME280;795;49.296;11.348;2023-05-03T09:05:37;97204.75;;;16.60;61.65
30339;BME280;795;49.296;11.348;2023-05-03T09:08:09;97192.34;;;17.16;59.08
30339;BME280;795;49.296;11.348;2023-05-03T09:10:41;97211.72;;;17.13;58.95
30339;BME280;795;49.296;11.348;2023-05-03T09:13:09;97212.94;;;17.46;57.70
30339;BME280;795;49.296;11.348;2023-05-03T09:15:37;97204.03;;;18.71;54.53
30339;BME280;795;49.296;11.348;2023-05-03T09:20:42;97203.53;;;17.63;56.21
30339;BME280;795;49.296;11.348;2023-05-03T09:25:54;97208.94;;;17.06;59.58
30339;BME280;795;49.296;11.348;2023-05-03T09:28:21;97214.91;;;17.52;58.76
30339;BME280;795;49.296;11.348;2023-05-03T09:31:05;97218.28;;;17.75;56.23
30339;BME280;795;49.296;11.348;2023-05-03T09:33:32;97198.88;;;17.57;56.61
30339;BME280;795;49.296;11.348;2023-05-03T09:36:04;97207.50;;;17.82;55.54
30339;BME280;795;49.296;11.348;2023-05-03T09:38:35;97201.66;;;18.62;54.31
30339;BME280;795;49.296;11.348;2023-05-03T09:41:05;97209.19;;;18.94;54.41
30339;BME280;795;49.296;11.348;2023-05-03T09:43:34;97190.84;;;19.15;53.02
30339;BME280;795;49.296;11.348;2023-05-03T09:46:11;97169.66;;;19.91;50.93
30339;BME280;795;49.296;11.348;2023-05-03T09:48:40;97206.94;;;21.53;46.54
30339;BME280;795;49.296;11.348;2023-05-03T09:51:09;97219.47;;;21.67;46.07
30339;BME280;795;49.296;11.348;2023-05-03T09:53:39;97200.25;;;21.80;44.50
30339;BME280;795;49.296;11.348;2023-05-03T09:56:09;97215.56;;;21.94;44.13
30339;BME280;795;49.296;11.348;2023-05-03T09:58:41;97211.19;;;20.72;46.24
30339;BME280;795;49.296;11.348;2023-05-03T10:01:10;97209.75;;;20.17;47.48
30339;BME280;795;49.296;11.348;2023-05-03T10:03:47;97215.38;;;19.29;49.50
30339;BME280;795;49.296;11.348;2023-05-03T10:06:34;97204.78;;;18.10;52.00
30339;BME280;795;49.296;11.348;2023-05-03T10:10:01;97210.22;;;17.82;52.32
30339;BME280;795;49.296;11.348;2023-05-03T10:12:12;97205.53;;;17.76;53.32
30339;BME280;795;49.296;11.348;2023-05-03T10:14:43;97199.78;;;18.62;51.71
30339;BME280;795;49.296;11.348;2023-05-03T10:17:27;97161.22;;;18.52;51.43
30339;BME280;795;49.296;11.348;2023-05-03T10:20:27;97148.06;;;18.55;50.09
30339;BME280;795;49.296;11.348;2023-05-03T10:23:08;97132.31;;;17.89;51.64
30339;BME280;795;49.296;11.348;2023-05-03T10:25:39;97196.88;;;18.36;52.35
30339;BME280;795;49.296;11.348;2023-05-03T10:28:26;97179.34;;;17.68;52.87
30339;BME280;795;49.296;11.348;2023-05-03T10:30:53;97189.09;;;18.61;51.22
30339;BME280;795;49.296;11.348;2023-05-03T10:33:33;97186.09;;;18.83;51.52
30339;BME280;795;49.296;11.348;2023-05-03T10:36:07;97183.72;;;18.39;52.46
30339;BME280;795;49.296;11.348;2023-05-03T10:38:38;97109.28;;;17.36;53.51
30339;BME280;795;49.296;11.348;2023-05-03T10:41:05;97190.03;;;17.70;52.67
30339;BME280;795;49.296;11.348;2023-05-03T10:46:04;97177.50;;;18.45;51.30
30339;BME280;795;49.296;11.348;2023-05-03T10:48:33;97134.25;;;19.98;47.66
30339;BME280;795;49.296;11.348;2023-05-03T10:53:59;97139.72;;;22.75;39.33
30339;BME280;795;49.296;11.348;2023-05-03T10:56:26;97153.03;;;22.90;38.24
30339;BME280;795;49.296;11.348;2023-05-03T10:58:53;97167.81;;;21.97;39.52
30339;BME280;795;49.296;11.348;2023-05-03T11:01:25;97122.19;;;20.64;41.29
30339;BME280;795;49.296;11.348;2023-05-03T11:04:31;97164.16;;;20.83;43.13
30339;BME280;795;49.296;11.348;2023-05-03T11:07:00;97136.75;;;21.02;42.41
30339;BME280;795;49.296;11.348;2023-05-03T11:09:33;97174.78;;;22.60;41.28
30339;BME280;795;49.296;11.348;2023-05-03T11:12:05;97169.31;;;22.42;40.19
30339;BME280;795;49.296;11.348;2023-05-03T11:14:33;97161.09;;;21.17;41.84
30339;BME280;795;49.296;11.348;2023-05-03T11:17:00;97171.78;;;20.22;44.11
30339;BME280;795;49.296;11.348;2023-05-03T11:19:28;97174.88;;;19.60;44.39
30339;BME280;795;49.296;11.348;2023-05-03T11:21:56;97105.38;;;18.49;45.58
30339;BME280;795;49.296;11.348;2023-05-03T11:24:23;97165.09;;;18.71;46.74
30339;BME280;795;49.296;11.348;2023-05-03T11:26:50;97152.91;;;19.94;45.40
30339;BME280;795;49.296;11.348;2023-05-03T11:29:17;97154.84;;;21.79;40.86
30339;BME280;795;49.296;11.348;2023-05-03T11:31:45;97123.72;;;22.72;38.98
30339;BME280;795;49.296;11.348;2023-05-03T11:34:12;97169.03;;;24.88;36.20
30339;BME280;795;49.296;11.348;2023-05-03T11:36:41;97166.34;;;25.96;34.22
30339;BME280;795;49.296;11.348;2023-05-03T11:39:13;97155.75;;;26.16;34.54
30339;BME280;795;49.296;11.348;2023-05-03T11:41:40;97126.59;;;25.19;34.96
30339;BME280;795;49.296;11.348;2023-05-03T11:44:08;97147.44;;;25.31;34.88
30339;BME280;795;49.296;11.348;2023-05-03T11:46:40;97151.91;;;25.21;34.27
30339;BME280;795;49.296;11.348;2023-05-03T11:49:09;97159.13;;;24.29;35.17
30339;BME280;795;49.296;11.348;2023-05-03T11:51:36;97162.22;;;25.53;34.15
30339;BME280;795;49.296;11.348;2023-05-03T11:54:04;97145.47;;;25.83;33.05
30339;BME280;795;49.296;11.348;2023-05-03T11:56:54;97092.50;;;25.59;32.82
30339;BME280;795;49.296;11.348;2023-05-03T11:59:37;97153.22;;;26.31;32.45
30339;BME280;795;49.296;11.348;2023-05-03T12:02:12;97164.13;;;26.43;31.61
30339;BME280;795;49.296;11.348;2023-05-03T12:04:42;97144.31;;;27.55;30.29
30339;BME280;795;49.296;11.348;2023-05-03T12:07:12;97120.50;;;26.51;29.59
30339;BME280;795;49.296;11.348;2023-05-03T12:09:44;97158.38;;;28.02;27.82
30339;BME280;795;49.296;11.348;2023-05-03T12:12:26;97130.22;;;27.14;29.24
30339;BME280;795;49.296;11.348;2023-05-03T12:15:00;97152.13;;;27.90;29.18
30339;BME280;795;49.296;11.348;2023-05-03T12:17:35;97158.53;;;29.28;27.87
30339;BME280;795;49.296;11.348;2023-05-03T12:20:20;97155.38;;;26.12;30.04
30339;BME280;795;49.296;11.348;2023-05-03T12:22:56;97127.13;;;25.32;31.31
30339;BME280;795;49.296;11.348;2023-05-03T12:25:26;97143.59;;;24.92;31.25
30339;BME280;795;49.296;11.348;2023-05-03T12:28:03;97134.19;;;24.65;31.27
30339;BME280;795;49.296;11.348;2023-05-03T12:30:33;97146.88;;;25.69;30.76
30339;BME280;795;49.296;11.348;2023-05-03T12:33:00;97140.91;;;27.27;29.29
30339;BME280;795;49.296;11.348;2023-05-03T12:35:30;97067.72;;;27.41;27.04
30339;BME280;795;49.296;11.348;2023-05-03T12:38:01;97138.78;;;27.55;27.04
30339;BME280;795;49.296;11.348;2023-05-03T12:40:36;97121.72;;;26.77;28.45
30339;BME280;795;49.296;11.348;2023-05-03T12:43:05;97119.13;;;24.68;31.68
30339;BME280;795;49.296;11.348;2023-05-03T12:45:32;97126.28;;;24.22;31.52
30339;BME280;795;49.296;11.348;2023-05-03T12:48:01;97116.00;;;25.50;30.15
30339;BME280;795;49.296;11.348;2023-05-03T12:50:29;97123.06;;;26.91;29.32
30339;BME280;795;49.296;11.348;2023-05-03T12:52:58;97125.88;;;27.61;28.82
30339;BME280;795;49.296;11.348;2023-05-03T12:55:29;97116.78;;;27.87;27.78
30339;BME280;795;49.296;11.348;2023-05-03T12:58:06;97106.47;;;28.36;27.05
30339;BME280;795;49.296;11.348;2023-05-03T13:00:53;97124.53;;;26.27;30.05
30339;BME280;795;49.296;11.348;2023-05-03T13:03:23;97098.50;;;24.30;31.13
30339;BME280;795;49.296;11.348;2023-05-03T13:05:51;97108.44;;;22.04;33.92
30339;BME280;795;49.296;11.348;2023-05-03T13:08:18;97039.22;;;20.14;36.08
30339;BME280;795;49.296;11.348;2023-05-03T13:10:47;97100.47;;;20.12;37.24
30339;BME280;795;49.296;11.348;2023-05-03T13:13:15;97105.38;;;20.80;36.57
30339;BME280;795;49.296;11.348;2023-05-03T13:15:42;97104.44;;;22.85;33.43
30339;BME280;795;49.296;11.348;2023-05-03T13:18:10;97079.16;;;24.49;31.50
30339;BME280;795;49.296;11.348;2023-05-03T13:20:37;97091.94;;;25.74;28.56
30339;BME280;795;49.296;11.348;2023-05-03T13:23:04;97105.06;;;28.02;26.17
30339;BME280;795;49.296;11.348;2023-05-03T13:25:31;97084.50;;;28.19;25.52
30339;BME280;795;49.296;11.348;2023-05-03T13:28:00;97083.91;;;27.59;26.10
30339;BME280;795;49.296;11.348;2023-05-03T13:30:27;97089.34;;;26.12;27.54
30339;BME280;795;49.296;11.348;2023-05-03T13:32:54;97087.13;;;25.81;27.98
30339;BME280;795;49.296;11.348;2023-05-03T13:35:21;97081.94;;;27.81;26.48
30339;BME280;795;49.296;11.348;2023-05-03T13:37:48;97080.69;;;27.40;27.59
30339;BME280;795;49.296;11.348;2023-05-03T13:40:15;97083.22;;;25.49;29.00
30339;BME280;795;49.296;11.348;2023-05-03T13:42:42;97072.75;;;25.34;29.03
30339;BME280;795;49.296;11.348;2023-05-03T13:45:09;97066.03;;;24.51;29.44
30339;BME280;795;49.296;11.348;2023-05-03T13:47:36;97073.81;;;25.05;28.90